KBYG/BYG METAR and TAF weather

Enter ICAO airport designator
Station Type Date Time Source
KBYG METAR 2020/01/26 18:53 UTC NOAA

KBYG 261853Z AUTO VRB04KT 10SM CLR 06/M06 A2998 RMK AO2 SLP158 T00611056


Station Type Date Time Source
KBYG Decoded METAR 2020/01/26 18:53 UTC NOAA

BUFFALO JOHNSON COUNTY AIRPORT , WY, United States (KBYG) 44-23N 106-43W 1497M
Jan 26, 2020 - 01:53 PM EST / 2020.01.26 1853 UTC
Wind: Variable at 5 MPH (4 KT):0
Visibility: 10 mile(s):0
Sky conditions: clear
Temperature: 43.0 F (6.1 C)
Dew Point: 21.9 F (-5.6 C)
Relative Humidity: 42%
Pressure (altimeter): 29.98 in. Hg (1015 hPa)
ob: KBYG 261853Z AUTO VRB04KT 10SM CLR 06/M06 A2998 RMK AO2 SLP158 T00611056
cycle: 19

Station Type Date Time Source
KBYG TAF UTC NOAA

Error!

Example: see airport list